sensor_id;sensor_type;location;lat;lon;timestamp;temperature;humidity
68842;SHT35;55849;48.482;2.332;2023-10-08T05:21:57;14.40;60.90
68842;SHT35;55849;48.482;2.332;2023-10-08T05:25:18;14.38;60.87
68842;SHT35;55849;48.482;2.332;2023-10-08T05:28:25;14.36;60.89
68842;SHT35;55849;48.482;2.332;2023-10-08T05:31:28;14.36;60.85
68842;SHT35;55849;48.482;2.332;2023-10-08T05:34:47;14.33;60.72
68842;SHT35;55849;48.482;2.332;2023-10-08T05:38:15;14.29;60.82
68842;SHT35;55849;48.482;2.332;2023-10-08T05:41:22;14.27;60.87
68842;SHT35;55849;48.482;2.332;2023-10-08T05:44:39;14.26;60.99
68842;SHT35;55849;48.482;2.332;2023-10-08T05:47:40;14.24;61.15
68842;SHT35;55849;48.482;2.332;2023-10-08T05:51:06;14.24;60.91
68842;SHT35;55849;48.482;2.332;2023-10-08T05:54:16;14.20;60.85
68842;SHT35;55849;48.482;2.332;2023-10-08T05:57:36;14.20;60.78
68842;SHT35;55849;48.482;2.332;2023-10-08T06:00:40;14.19;60.90
68842;SHT35;55849;48.482;2.332;2023-10-08T06:04:05;14.16;60.85
68842;SHT35;55849;48.482;2.332;2023-10-08T06:07:21;14.14;60.83
68842;SHT35;55849;48.482;2.332;2023-10-08T06:10:35;14.13;60.99
68842;SHT35;55849;48.482;2.332;2023-10-08T06:13:42;14.13;61.12
68842;SHT35;55849;48.482;2.332;2023-10-08T06:16:53;14.13;61.21
68842;SHT35;55849;48.482;2.332;2023-10-08T06:20:13;14.12;61.36
68842;SHT35;55849;48.482;2.332;2023-10-08T06:23:17;14.12;61.40
68842;SHT35;55849;48.482;2.332;2023-10-08T06:26:20;14.13;61.74
68842;SHT35;55849;48.482;2.332;2023-10-08T06:29:25;14.12;61.92
68842;SHT35;55849;48.482;2.332;2023-10-08T06:32:30;14.16;61.80
68842;SHT35;55849;48.482;2.332;2023-10-08T06:35:31;14.14;61.85
68842;SHT35;55849;48.482;2.332;2023-10-08T06:38:34;14.16;62.07
68842;SHT35;55849;48.482;2.332;2023-10-08T06:41:37;14.19;62.04
68842;SHT35;55849;48.482;2.332;2023-10-08T06:44:38;14.16;62.16
68842;SHT35;55849;48.482;2.332;2023-10-08T06:47:42;14.19;62.38
68842;SHT35;55849;48.482;2.332;2023-10-08T06:50:47;14.22;62.57
68842;SHT35;55849;48.482;2.332;2023-10-08T06:53:49;14.24;62.57
68842;SHT35;55849;48.482;2.332;2023-10-08T06:56:52;14.29;62.59
68842;SHT35;55849;48.482;2.332;2023-10-08T06:59:56;14.27;62.87
68842;SHT35;55849;48.482;2.332;2023-10-08T07:02:59;14.27;63.07
68842;SHT35;55849;48.482;2.332;2023-10-08T07:06:01;14.31;63.23
68842;SHT35;55849;48.482;2.332;2023-10-08T07:09:11;14.33;63.08
68842;SHT35;55849;48.482;2.332;2023-10-08T07:12:24;14.38;63.25
68842;SHT35;55849;48.482;2.332;2023-10-08T07:15:25;14.40;63.31
68842;SHT35;55849;48.482;2.332;2023-10-08T07:18:27;14.42;63.53
68842;SHT35;55849;48.482;2.332;2023-10-08T07:21:34;14.47;63.56
68842;SHT35;55849;48.482;2.332;2023-10-08T07:24:45;14.48;63.68
68842;SHT35;55849;48.482;2.332;2023-10-08T07:27:52;14.49;63.72
68842;SHT35;55849;48.482;2.332;2023-10-08T07:30:53;14.54;63.90
68842;SHT35;55849;48.482;2.332;2023-10-08T07:33:56;14.55;64.02
68842;SHT35;55849;48.482;2.332;2023-10-08T07:36:57;14.58;64.14
68842;SHT35;55849;48.482;2.332;2023-10-08T07:40:00;14.61;64.27
68842;SHT35;55849;48.482;2.332;2023-10-08T07:43:07;14.63;64.57
68842;SHT35;55849;48.482;2.332;2023-10-08T07:46:09;14.65;64.68
68842;SHT35;55849;48.482;2.332;2023-10-08T07:49:11;14.69;64.69
68842;SHT35;55849;48.482;2.332;2023-10-08T07:52:14;14.71;64.75
68842;SHT35;55849;48.482;2.332;2023-10-08T07:55:17;14.75;65.01
68842;SHT35;55849;48.482;2.332;2023-10-08T07:58:20;14.78;65.14
68842;SHT35;55849;48.482;2.332;2023-10-08T08:01:22;14.83;65.26
68842;SHT35;55849;48.482;2.332;2023-10-08T08:04:25;14.81;65.45
68842;SHT35;55849;48.482;2.332;2023-10-08T08:07:33;14.85;65.52
68842;SHT35;55849;48.482;2.332;2023-10-08T08:10:34;14.93;65.71
68842;SHT35;55849;48.482;2.332;2023-10-08T08:13:39;14.93;65.83
68842;SHT35;55849;48.482;2.332;2023-10-08T08:16:43;14.98;65.94
68842;SHT35;55849;48.482;2.332;2023-10-08T08:19:49;15.02;66.03
68842;SHT35;55849;48.482;2.332;2023-10-08T08:22:52;15.07;66.33
68842;SHT35;55849;48.482;2.332;2023-10-08T08:25:54;15.11;66.17
68842;SHT35;55849;48.482;2.332;2023-10-08T08:29:08;15.14;66.45
68842;SHT35;55849;48.482;2.332;2023-10-08T08:32:15;15.17;66.19
68842;SHT35;55849;48.482;2.332;2023-10-08T08:35:21;15.23;66.19
68842;SHT35;55849;48.482;2.332;2023-10-08T08:38:24;15.27;66.20
68842;SHT35;55849;48.482;2.332;2023-10-08T08:41:25;15.31;65.98
68842;SHT35;55849;48.482;2.332;2023-10-08T08:44:31;15.35;65.70
68842;SHT35;55849;48.482;2.332;2023-10-08T08:47:32;15.41;65.45
68842;SHT35;55849;48.482;2.332;2023-10-08T08:50:34;15.44;65.44
68842;SHT35;55849;48.482;2.332;2023-10-08T08:53:38;15.48;65.17
68842;SHT35;55849;48.482;2.332;2023-10-08T08:56:40;15.54;65.22
68842;SHT35;55849;48.482;2.332;2023-10-08T08:59:51;15.57;65.43
68842;SHT35;55849;48.482;2.332;2023-10-08T09:02:54;15.58;65.58
68842;SHT35;55849;48.482;2.332;2023-10-08T09:05:56;15.62;65.53
68842;SHT35;55849;48.482;2.332;2023-10-08T09:08:59;15.66;65.80
68842;SHT35;55849;48.482;2.332;2023-10-08T09:12:16;15.73;66.22
68842;SHT35;55849;48.482;2.332;2023-10-08T09:15:19;15.79;66.05
68842;SHT35;55849;48.482;2.332;2023-10-08T09:18:23;15.82;66.77
68842;SHT35;55849;48.482;2.332;2023-10-08T09:21:27;15.86;66.54
68842;SHT35;55849;48.482;2.332;2023-10-08T09:24:30;15.90;67.44
68842;SHT35;55849;48.482;2.332;2023-10-08T09:27:33;15.96;67.39
68842;SHT35;55849;48.482;2.332;2023-10-08T09:30:39;16.03;67.69
68842;SHT35;55849;48.482;2.332;2023-10-08T09:33:41;16.09;68.10
68842;SHT35;55849;48.482;2.332;2023-10-08T09:36:43;16.16;67.75
68842;SHT35;55849;48.482;2.332;2023-10-08T09:39:45;16.24;68.21
68842;SHT35;55849;48.482;2.332;2023-10-08T09:42:47;16.35;67.96
68842;SHT35;55849;48.482;2.332;2023-10-08T09:46:00;16.40;67.45
68842;SHT35;55849;48.482;2.332;2023-10-08T09:49:06;16.48;68.02
68842;SHT35;55849;48.482;2.332;2023-10-08T09:52:09;16.58;67.88
68842;SHT35;55849;48.482;2.332;2023-10-08T09:55:13;16.63;68.31
68842;SHT35;55849;48.482;2.332;2023-10-08T09:58:19;16.68;68.36
68842;SHT35;55849;48.482;2.332;2023-10-08T10:01:24;16.76;68.84
68842;SHT35;55849;48.482;2.332;2023-10-08T10:04:30;16.83;68.79
68842;SHT35;55849;48.482;2.332;2023-10-08T10:07:32;16.91;68.79
68842;SHT35;55849;48.482;2.332;2023-10-08T10:10:33;16.96;69.31
68842;SHT35;55849;48.482;2.332;2023-10-08T10:13:39;17.02;69.18
68842;SHT35;55849;48.482;2.332;2023-10-08T10:16:42;17.11;70.16
68842;SHT35;55849;48.482;2.332;2023-10-08T10:19:50;17.21;70.08
68842;SHT35;55849;48.482;2.332;2023-10-08T10:22:51;17.25;69.75
68842;SHT35;55849;48.482;2.332;2023-10-08T10:25:53;17.34;69.48
68842;SHT35;55849;48.482;2.332;2023-10-08T10:29:20;17.45;70.06
68842;SHT35;55849;48.482;2.332;2023-10-08T10:32:23;17.55;69.58
68842;SHT35;55849;48.482;2.332;2023-10-08T10:35:24;17.66;69.09
68842;SHT35;55849;48.482;2.332;2023-10-08T10:38:27;17.74;69.18
68842;SHT35;55849;48.482;2.332;2023-10-08T10:41:30;17.84;69.80
68842;SHT35;55849;48.482;2.332;2023-10-08T10:44:32;17.97;68.91
68842;SHT35;55849;48.482;2.332;2023-10-08T10:47:38;18.08;69.09
68842;SHT35;55849;48.482;2.332;2023-10-08T10:50:50;18.18;68.70
68842;SHT35;55849;48.482;2.332;2023-10-08T10:54:06;18.32;68.38
68842;SHT35;55849;48.482;2.332;2023-10-08T10:57:10;18.41;69.14
68842;SHT35;55849;48.482;2.332;2023-10-08T11:00:18;18.53;68.55
68842;SHT35;55849;48.482;2.332;2023-10-08T11:03:31;18.67;68.03
68842;SHT35;55849;48.482;2.332;2023-10-08T11:06:35;18.80;68.06
68842;SHT35;55849;48.482;2.332;2023-10-08T11:09:38;18.90;67.82
68842;SHT35;55849;48.482;2.332;2023-10-08T11:12:46;19.07;68.21
68842;SHT35;55849;48.482;2.332;2023-10-08T11:15:54;19.21;66.74
68842;SHT35;55849;48.482;2.332;2023-10-08T11:18:59;19.35;66.09
68842;SHT35;55849;48.482;2.332;2023-10-08T11:22:06;19.43;63.49
68842;SHT35;55849;48.482;2.332;2023-10-08T11:25:23;19.45;64.52
68842;SHT35;55849;48.482;2.332;2023-10-08T11:28:31;19.52;64.91
68842;SHT35;55849;48.482;2.332;2023-10-08T11:31:34;19.70;66.05
68842;SHT35;55849;48.482;2.332;2023-10-08T11:34:38;19.82;64.32
68842;SHT35;55849;48.482;2.332;2023-10-08T11:37:45;19.99;64.81
68842;SHT35;55849;48.482;2.332;2023-10-08T11:40:48;20.12;64.10
68842;SHT35;55849;48.482;2.332;2023-10-08T11:43:52;20.28;64.36
68842;SHT35;55849;48.482;2.332;2023-10-08T11:46:57;20.37;65.72
68842;SHT35;55849;48.482;2.332;2023-10-08T11:50:07;20.54;66.20
68842;SHT35;55849;48.482;2.332;2023-10-08T11:53:11;20.68;65.91
68842;SHT35;55849;48.482;2.332;2023-10-08T11:56:12;20.82;66.08
68842;SHT35;55849;48.482;2.332;2023-10-08T11:59:15;20.94;64.68
68842;SHT35;55849;48.482;2.332;2023-10-08T12:02:19;21.09;64.27
68842;SHT35;55849;48.482;2.332;2023-10-08T12:05:22;21.26;65.48
68842;SHT35;55849;48.482;2.332;2023-10-08T12:08:24;21.36;63.99
68842;SHT35;55849;48.482;2.332;2023-10-08T12:11:27;21.54;66.17
68842;SHT35;55849;48.482;2.332;2023-10-08T12:14:32;21.71;63.46
68842;SHT35;55849;48.482;2.332;2023-10-08T12:17:34;21.84;64.13
68842;SHT35;55849;48.482;2.332;2023-10-08T12:20:41;22.02;62.72
68842;SHT35;55849;48.482;2.332;2023-10-08T12:23:45;22.19;59.21
68842;SHT35;55849;48.482;2.332;2023-10-08T12:26:47;22.34;61.25
68842;SHT35;55849;48.482;2.332;2023-10-08T12:29:49;22.57;61.54
68842;SHT35;55849;48.482;2.332;2023-10-08T12:32:53;22.78;60.22
68842;SHT35;55849;48.482;2.332;2023-10-08T12:35:56;23.03;58.05
68842;SHT35;55849;48.482;2.332;2023-10-08T12:38:57;23.27;59.12
68842;SHT35;55849;48.482;2.332;2023-10-08T12:41:59;23.54;57.15
68842;SHT35;55849;48.482;2.332;2023-10-08T12:45:06;23.79;58.61
68842;SHT35;55849;48.482;2.332;2023-10-08T12:48:12;24.00;59.41
68842;SHT35;55849;48.482;2.332;2023-10-08T12:51:16;24.25;57.69
68842;SHT35;55849;48.482;2.332;2023-10-08T12:54:18;24.51;57.42
68842;SHT35;55849;48.482;2.332;2023-10-08T12:57:24;24.79;56.66
68842;SHT35;55849;48.482;2.332;2023-10-08T13:00:32;25.04;56.08
68842;SHT35;55849;48.482;2.332;2023-10-08T13:03:33;25.28;54.89
68842;SHT35;55849;48.482;2.332;2023-10-08T13:06:42;25.53;54.63
68842;SHT35;55849;48.482;2.332;2023-10-08T13:09:45;25.80;55.06
68842;SHT35;55849;48.482;2.332;2023-10-08T13:12:47;26.00;53.92
68842;SHT35;55849;48.482;2.332;2023-10-08T13:15:49;26.25;53.69
68842;SHT35;55849;48.482;2.332;2023-10-08T13:18:55;26.44;53.14
68842;SHT35;55849;48.482;2.332;2023-10-08T13:22:00;26.66;52.77
68842;SHT35;55849;48.482;2.332;2023-10-08T13:25:01;26.84;51.48
68842;SHT35;55849;48.482;2.332;2023-10-08T13:28:05;27.10;51.91
68842;SHT35;55849;48.482;2.332;2023-10-08T13:31:10;27.32;50.28
68842;SHT35;55849;48.482;2.332;2023-10-08T13:34:11;27.50;50.11
68842;SHT35;55849;48.482;2.332;2023-10-08T13:37:17;27.74;49.11
68842;SHT35;55849;48.482;2.332;2023-10-08T13:40:19;27.94;50.73
68842;SHT35;55849;48.482;2.332;2023-10-08T13:43:33;28.09;48.96
68842;SHT35;55849;48.482;2.332;2023-10-08T13:46:35;28.25;48.55
68842;SHT35;55849;48.482;2.332;2023-10-08T13:49:38;28.41;50.67
68842;SHT35;55849;48.482;2.332;2023-10-08T13:52:42;28.55;47.92
68842;SHT35;55849;48.482;2.332;2023-10-08T13:55:44;28.67;49.52
68842;SHT35;55849;48.482;2.332;2023-10-08T13:58:46;28.80;47.41
68842;SHT35;55849;48.482;2.332;2023-10-08T14:01:50;28.93;47.11
68842;SHT35;55849;48.482;2.332;2023-10-08T14:04:52;29.04;49.00
68842;SHT35;55849;48.482;2.332;2023-10-08T14:07:55;29.16;50.17
68842;SHT35;55849;48.482;2.332;2023-10-08T14:10:58;29.26;49.29
68842;SHT35;55849;48.482;2.332;2023-10-08T14:14:03;29.35;49.46
68842;SHT35;55849;48.482;2.332;2023-10-08T14:17:08;29.46;49.49
68842;SHT35;55849;48.482;2.332;2023-10-08T14:20:15;29.53;48.87
68842;SHT35;55849;48.482;2.332;2023-10-08T14:23:23;29.64;49.19
68842;SHT35;55849;48.482;2.332;2023-10-08T14:26:26;29.69;48.90
68842;SHT35;55849;48.482;2.332;2023-10-08T14:29:35;29.73;49.18
68842;SHT35;55849;48.482;2.332;2023-10-08T14:32:38;29.77;48.60
68842;SHT35;55849;48.482;2.332;2023-10-08T14:35:43;29.82;48.86
68842;SHT35;55849;48.482;2.332;2023-10-08T14:39:03;29.91;49.02
68842;SHT35;55849;48.482;2.332;2023-10-08T14:42:23;30.00;48.67
68842;SHT35;55849;48.482;2.332;2023-10-08T14:45:41;30.08;49.36
68842;SHT35;55849;48.482;2.332;2023-10-08T14:48:47;30.19;49.04
68842;SHT35;55849;48.482;2.332;2023-10-08T14:51:49;30.25;47.56
68842;SHT35;55849;48.482;2.332;2023-10-08T14:54:55;30.29;48.41
68842;SHT35;55849;48.482;2.332;2023-10-08T14:57:57;30.35;48.73
68842;SHT35;55849;48.482;2.332;2023-10-08T15:01:01;30.37;48.39
68842;SHT35;55849;48.482;2.332;2023-10-08T15:04:04;30.36;48.32
68842;SHT35;55849;48.482;2.332;2023-10-08T15:07:06;30.36;48.80
68842;SHT35;55849;48.482;2.332;2023-10-08T15:10:12;30.35;48.72
68842;SHT35;55849;48.482;2.332;2023-10-08T15:13:15;30.36;48.83
68842;SHT35;55849;48.482;2.332;2023-10-08T15:16:17;30.39;48.71
68842;SHT35;55849;48.482;2.332;2023-10-08T15:19:21;30.40;48.68
68842;SHT35;55849;48.482;2.332;2023-10-08T15:22:24;30.44;48.39
68842;SHT35;55849;48.482;2.332;2023-10-08T15:25:27;30.41;48.52
68842;SHT35;55849;48.482;2.332;2023-10-08T15:28:29;30.44;48.77
68842;SHT35;55849;48.482;2.332;2023-10-08T15:31:31;30.43;48.59
68842;SHT35;55849;48.482;2.332;2023-10-08T15:34:33;30.40;48.44
68842;SHT35;55849;48.482;2.332;2023-10-08T15:37:35;30.37;48.38
68842;SHT35;55849;48.482;2.332;2023-10-08T15:40:38;30.33;48.57
68842;SHT35;55849;48.482;2.332;2023-10-08T15:43:49;30.29;48.96
68842;SHT35;55849;48.482;2.332;2023-10-08T15:46:52;30.19;48.82
68842;SHT35;55849;48.482;2.332;2023-10-08T15:49:53;30.12;48.93
68842;SHT35;55849;48.482;2.332;2023-10-08T15:52:55;30.02;49.13
68842;SHT35;55849;48.482;2.332;2023-10-08T15:55:58;29.87;49.21
68842;SHT35;55849;48.482;2.332;2023-10-08T15:58:59;29.64;49.83
68842;SHT35;55849;48.482;2.332;2023-10-08T16:02:01;29.37;49.76
68842;SHT35;55849;48.482;2.332;2023-10-08T16:05:03;29.08;50.52
68842;SHT35;55849;48.482;2.332;2023-10-08T16:08:08;28.78;50.66
68842;SHT35;55849;48.482;2.332;2023-10-08T16:11:11;28.50;51.42
68842;SHT35;55849;48.482;2.332;2023-10-08T16:14:12;28.24;51.92
68842;SHT35;55849;48.482;2.332;2023-10-08T16:17:14;28.00;52.19
68842;SHT35;55849;48.482;2.332;2023-10-08T16:20:16;27.76;52.79
68842;SHT35;55849;48.482;2.332;2023-10-08T16:23:18;27.52;53.09
68842;SHT35;55849;48.482;2.332;2023-10-08T16:26:24;27.34;53.62
68842;SHT35;55849;48.482;2.332;2023-10-08T16:29:26;27.10;54.03
68842;SHT35;55849;48.482;2.332;2023-10-08T16:32:27;26.93;54.45
68842;SHT35;55849;48.482;2.332;2023-10-08T16:35:29;26.70;54.72
68842;SHT35;55849;48.482;2.332;2023-10-08T16:38:31;26.51;55.05
68842;SHT35;55849;48.482;2.332;2023-10-08T16:41:34;26.34;55.31
68842;SHT35;55849;48.482;2.332;2023-10-08T16:44:35;26.17;55.60
68842;SHT35;55849;48.482;2.332;2023-10-08T16:47:37;25.97;55.94
68842;SHT35;55849;48.482;2.332;2023-10-08T16:50:38;25.82;56.05
68842;SHT35;55849;48.482;2.332;2023-10-08T16:53:40;25.65;56.33
68842;SHT35;55849;48.482;2.332;2023-10-08T16:56:43;25.48;56.36
68842;SHT35;55849;48.482;2.332;2023-10-08T16:59:45;25.31;56.64
68842;SHT35;55849;48.482;2.332;2023-10-08T17:02:46;25.16;56.86
68842;SHT35;55849;48.482;2.332;2023-10-08T17:05:48;25.00;56.85
68842;SHT35;55849;48.482;2.332;2023-10-08T17:08:49;24.83;56.99
68842;SHT35;55849;48.482;2.332;2023-10-08T17:11:52;24.71;57.37
68842;SHT35;55849;48.482;2.332;2023-10-08T17:14:54;24.59;57.42
68842;SHT35;55849;48.482;2.332;2023-10-08T17:17:56;24.42;57.24
68842;SHT35;55849;48.482;2.332;2023-10-08T17:20:58;24.33;57.35
68842;SHT35;55849;48.482;2.332;2023-10-08T17:23:59;24.18;57.27
68842;SHT35;55849;48.482;2.332;2023-10-08T17:27:02;24.06;57.31
68842;SHT35;55849;48.482;2.332;2023-10-08T17:30:08;23.93;57.38
68842;SHT35;55849;48.482;2.332;2023-10-08T17:33:10;23.81;57.39
68842;SHT35;55849;48.482;2.332;2023-10-08T17:36:12;23.64;57.45
68842;SHT35;55849;48.482;2.332;2023-10-08T17:39:13;23.53;57.82
68842;SHT35;55849;48.482;2.332;2023-10-08T17:42:19;23.43;57.83
68842;SHT35;55849;48.482;2.332;2023-10-08T17:45:20;23.31;58.04
68842;SHT35;55849;48.482;2.332;2023-10-08T17:48:25;23.20;58.32
68842;SHT35;55849;48.482;2.332;2023-10-08T17:51:26;23.12;58.07
68842;SHT35;55849;48.482;2.332;2023-10-08T17:54:28;23.02;58.40
68842;SHT35;55849;48.482;2.332;2023-10-08T17:57:34;22.95;58.51
68842;SHT35;55849;48.482;2.332;2023-10-08T18:00:38;22.85;59.07
68842;SHT35;55849;48.482;2.332;2023-10-08T18:03:41;22.78;58.97
68842;SHT35;55849;48.482;2.332;2023-10-08T18:06:44;22.71;59.15
68842;SHT35;55849;48.482;2.332;2023-10-08T18:09:46;22.65;59.18
68842;SHT35;55849;48.482;2.332;2023-10-08T18:12:49;22.57;59.03
68842;SHT35;55849;48.482;2.332;2023-10-08T18:15:51;22.45;58.85
68842;SHT35;55849;48.482;2.332;2023-10-08T18:18:54;22.37;59.03
68842;SHT35;55849;48.482;2.332;2023-10-08T18:21:56;22.29;58.80
68842;SHT35;55849;48.482;2.332;2023-10-08T18:24:59;22.20;58.80
68842;SHT35;55849;48.482;2.332;2023-10-08T18:28:04;22.13;59.07
68842;SHT35;55849;48.482;2.332;2023-10-08T18:31:06;22.03;58.97
68842;SHT35;55849;48.482;2.332;2023-10-08T18:34:10;21.95;59.15
68842;SHT35;55849;48.482;2.332;2023-10-08T18:37:13;21.85;59.53
68842;SHT35;55849;48.482;2.332;2023-10-08T18:40:16;21.81;60.07
68842;SHT35;55849;48.482;2.332;2023-10-08T18:43:19;21.77;60.25
68842;SHT35;55849;48.482;2.332;2023-10-08T18:46:21;21.73;59.94
68842;SHT35;55849;48.482;2.332;2023-10-08T18:49:23;21.68;60.13
68842;SHT35;55849;48.482;2.332;2023-10-08T18:52:28;21.61;59.91
68842;SHT35;55849;48.482;2.332;2023-10-08T18:55:31;21.53;59.53
68842;SHT35;55849;48.482;2.332;2023-10-08T18:58:35;21.47;59.42
68842;SHT35;55849;48.482;2.332;2023-10-08T19:01:37;21.36;59.23
68842;SHT35;55849;48.482;2.332;2023-10-08T19:04:40;21.27;59.19
68842;SHT35;55849;48.482;2.332;2023-10-08T19:07:43;21.18;59.08
68842;SHT35;55849;48.482;2.332;2023-10-08T19:10:45;21.09;59.21
68842;SHT35;55849;48.482;2.332;2023-10-08T19:13:48;20.99;59.18
68842;SHT35;55849;48.482;2.332;2023-10-08T19:16:50;20.92;59.32
68842;SHT35;55849;48.482;2.332;2023-10-08T19:19:53;20.87;59.38
68842;SHT35;55849;48.482;2.332;2023-10-08T19:22:54;20.78;59.64
68842;SHT35;55849;48.482;2.332;2023-10-08T19:25:56;20.73;60.30
68842;SHT35;55849;48.482;2.332;2023-10-08T19:28:59;20.68;60.57
68842;SHT35;55849;48.482;2.332;2023-10-08T19:32:02;20.71;60.38
68842;SHT35;55849;48.482;2.332;2023-10-08T19:35:05;20.65;60.05
68842;SHT35;55849;48.482;2.332;2023-10-08T19:38:11;20.58;59.86
68842;SHT35;55849;48.482;2.332;2023-10-08T19:41:13;20.51;60.00
68842;SHT35;55849;48.482;2.332;2023-10-08T19:44:17;20.44;60.41
68842;SHT35;55849;48.482;2.332;2023-10-08T19:47:19;20.43;60.60
68842;SHT35;55849;48.482;2.332;2023-10-08T19:50:20;20.40;60.14
68842;SHT35;55849;48.482;2.332;2023-10-08T19:53:23;20.32;59.71
68842;SHT35;55849;48.482;2.332;2023-10-08T19:56:26;20.26;59.56
68842;SHT35;55849;48.482;2.332;2023-10-08T19:59:29;20.16;59.78
68842;SHT35;55849;48.482;2.332;2023-10-08T20:02:31;20.09;59.68
68842;SHT35;55849;48.482;2.332;2023-10-08T20:05:32;20.05;60.25
68842;SHT35;55849;48.482;2.332;2023-10-08T20:08:35;19.97;59.87
68842;SHT35;55849;48.482;2.332;2023-10-08T20:11:36;19.91;60.01
68842;SHT35;55849;48.482;2.332;2023-10-08T20:14:40;19.87;60.64
68842;SHT35;55849;48.482;2.332;2023-10-08T20:17:43;19.85;60.15
68842;SHT35;55849;48.482;2.332;2023-10-08T20:20:45;19.80;60.17
68842;SHT35;55849;48.482;2.332;2023-10-08T20:23:48;19.74;60.89
68842;SHT35;55849;48.482;2.332;2023-10-08T20:26:50;19.71;61.00
68842;SHT35;55849;48.482;2.332;2023-10-08T20:29:55;19.70;61.02
68842;SHT35;55849;48.482;2.332;2023-10-08T20:32:57;19.64;61.11
68842;SHT35;55849;48.482;2.332;2023-10-08T20:35:59;19.62;61.23
68842;SHT35;55849;48.482;2.332;2023-10-08T20:39:01;19.60;60.94
68842;SHT35;55849;48.482;2.332;2023-10-08T20:42:03;19.52;60.43
68842;SHT35;55849;48.482;2.332;2023-10-08T20:45:07;19.50;60.45
68842;SHT35;55849;48.482;2.332;2023-10-08T20:48:09;19.42;60.00
68842;SHT35;55849;48.482;2.332;2023-10-08T20:51:13;19.36;59.90
68842;SHT35;55849;48.482;2.332;2023-10-08T20:54:17;19.28;60.29
68842;SHT35;55849;48.482;2.332;2023-10-08T20:57:20;19.23;60.35
68842;SHT35;55849;48.482;2.332;2023-10-08T21:00:24;19.16;60.69
68842;SHT35;55849;48.482;2.332;2023-10-08T21:03:30;19.16;60.40
68842;SHT35;55849;48.482;2.332;2023-10-08T21:06:32;19.10;60.38
68842;SHT35;55849;48.482;2.332;2023-10-08T21:09:34;19.04;60.60
68842;SHT35;55849;48.482;2.332;2023-10-08T21:12:36;19.02;61.09
68842;SHT35;55849;48.482;2.332;2023-10-08T21:15:39;18.98;61.30
68842;SHT35;55849;48.482;2.332;2023-10-08T21:18:43;18.98;61.09
68842;SHT35;55849;48.482;2.332;2023-10-08T21:25:42;18.87;60.72
68842;SHT35;55849;48.482;2.332;2023-10-08T21:28:45;18.85;60.93
68842;SHT35;55849;48.482;2.332;2023-10-08T21:31:48;18.77;61.05
